sensor_id;sensor_type;location;lat;lon;timestamp;temperature;humidity
39371;DHT22;25099;51.946;4.838;2023-05-07T00:00:17;15.60;99.90
39371;DHT22;25099;51.946;4.838;2023-05-07T00:02:44;15.50;99.90
39371;DHT22;25099;51.946;4.838;2023-05-07T00:05:10;15.50;99.90
39371;DHT22;25099;51.946;4.838;2023-05-07T00:07:36;15.50;99.90
39371;DHT22;25099;51.946;4.838;2023-05-07T00:10:03;15.60;99.90
39371;DHT22;25099;51.946;4.838;2023-05-07T00:12:28;15.60;99.90
39371;DHT22;25099;51.946;4.838;2023-05-07T00:14:57;15.60;99.90
39371;DHT22;25099;51.946;4.838;2023-05-07T00:17:22;15.50;99.90
39371;DHT22;25099;51.946;4.838;2023-05-07T00:19:48;15.50;99.90
39371;DHT22;25099;51.946;4.838;2023-05-07T00:22:14;15.50;99.90
39371;DHT22;25099;51.946;4.838;2023-05-07T00:24:39;15.50;99.90
39371;DHT22;25099;51.946;4.838;2023-05-07T00:27:05;15.50;99.90
39371;DHT22;25099;51.946;4.838;2023-05-07T00:29:30;15.50;99.90
39371;DHT22;25099;51.946;4.838;2023-05-07T00:31:56;15.50;99.90
39371;DHT22;25099;51.946;4.838;2023-05-07T00:34:22;15.60;99.90
39371;DHT22;25099;51.946;4.838;2023-05-07T00:36:48;15.50;99.90
39371;DHT22;25099;51.946;4.838;2023-05-07T00:39:13;15.50;99.90
39371;DHT22;25099;51.946;4.838;2023-05-07T00:41:39;15.60;99.90
39371;DHT22;25099;51.946;4.838;2023-05-07T00:44:04;15.60;99.90
39371;DHT22;25099;51.946;4.838;2023-05-07T00:46:30;15.60;99.90
39371;DHT22;25099;51.946;4.838;2023-05-07T00:48:56;15.60;99.90
39371;DHT22;25099;51.946;4.838;2023-05-07T00:51:24;15.60;99.90
39371;DHT22;25099;51.946;4.838;2023-05-07T00:53:50;15.60;99.90
39371;DHT22;25099;51.946;4.838;2023-05-07T00:56:16;15.60;99.90
39371;DHT22;25099;51.946;4.838;2023-05-07T00:58:42;15.60;99.90
39371;DHT22;25099;51.946;4.838;2023-05-07T01:01:08;15.70;99.90
39371;DHT22;25099;51.946;4.838;2023-05-07T01:03:33;15.60;99.90
39371;DHT22;25099;51.946;4.838;2023-05-07T01:05:59;15.70;99.90
39371;DHT22;25099;51.946;4.838;2023-05-07T01:08:26;15.50;99.90
39371;DHT22;25099;51.946;4.838;2023-05-07T01:10:55;15.60;99.90
39371;DHT22;25099;51.946;4.838;2023-05-07T01:13:21;15.50;99.90
39371;DHT22;25099;51.946;4.838;2023-05-07T01:15:47;15.40;99.90
39371;DHT22;25099;51.946;4.838;2023-05-07T01:18:13;15.40;99.90
39371;DHT22;25099;51.946;4.838;2023-05-07T01:20:39;15.50;99.90
39371;DHT22;25099;51.946;4.838;2023-05-07T01:23:07;15.50;99.90
39371;DHT22;25099;51.946;4.838;2023-05-07T01:25:32;15.40;99.90
39371;DHT22;25099;51.946;4.838;2023-05-07T01:27:58;15.40;99.90
39371;DHT22;25099;51.946;4.838;2023-05-07T01:30:26;15.40;99.90
39371;DHT22;25099;51.946;4.838;2023-05-07T01:33:11;15.50;99.90
39371;DHT22;25099;51.946;4.838;2023-05-07T01:35:41;15.40;99.90
39371;DHT22;25099;51.946;4.838;2023-05-07T01:38:08;15.40;99.90
39371;DHT22;25099;51.946;4.838;2023-05-07T01:40:34;15.30;99.90
39371;DHT22;25099;51.946;4.838;2023-05-07T01:43:02;15.40;99.90
39371;DHT22;25099;51.946;4.838;2023-05-07T01:45:30;15.40;99.90
39371;DHT22;25099;51.946;4.838;2023-05-07T01:47:57;15.40;99.90
39371;DHT22;25099;51.946;4.838;2023-05-07T01:50:23;15.40;99.90
39371;DHT22;25099;51.946;4.838;2023-05-07T01:52:50;15.40;99.90
39371;DHT22;25099;51.946;4.838;2023-05-07T01:55:16;15.40;99.90
39371;DHT22;25099;51.946;4.838;2023-05-07T01:57:41;15.40;99.90
39371;DHT22;25099;51.946;4.838;2023-05-07T02:00:07;15.40;99.90
39371;DHT22;25099;51.946;4.838;2023-05-07T02:02:34;15.40;99.90
39371;DHT22;25099;51.946;4.838;2023-05-07T02:05:00;15.50;99.90
39371;DHT22;25099;51.946;4.838;2023-05-07T02:07:26;15.40;99.90
39371;DHT22;25099;51.946;4.838;2023-05-07T02:09:52;15.30;99.90
39371;DHT22;25099;51.946;4.838;2023-05-07T02:12:17;15.40;99.90
39371;DHT22;25099;51.946;4.838;2023-05-07T02:14:43;15.40;99.90
39371;DHT22;25099;51.946;4.838;2023-05-07T02:17:08;15.30;99.90
39371;DHT22;25099;51.946;4.838;2023-05-07T02:19:34;15.40;99.90
39371;DHT22;25099;51.946;4.838;2023-05-07T02:22:00;15.40;99.90
39371;DHT22;25099;51.946;4.838;2023-05-07T02:24:26;15.40;99.90
39371;DHT22;25099;51.946;4.838;2023-05-07T02:26:51;15.30;99.90
39371;DHT22;25099;51.946;4.838;2023-05-07T02:29:17;15.30;99.90
39371;DHT22;25099;51.946;4.838;2023-05-07T02:31:42;15.20;99.90
39371;DHT22;25099;51.946;4.838;2023-05-07T02:34:08;15.30;99.90
39371;DHT22;25099;51.946;4.838;2023-05-07T02:36:33;15.30;99.90
39371;DHT22;25099;51.946;4.838;2023-05-07T02:38:59;15.40;99.90
39371;DHT22;25099;51.946;4.838;2023-05-07T02:41:24;15.40;99.90
39371;DHT22;25099;51.946;4.838;2023-05-07T02:43:50;15.30;99.90
39371;DHT22;25099;51.946;4.838;2023-05-07T02:46:15;15.40;99.90
39371;DHT22;25099;51.946;4.838;2023-05-07T02:48:41;15.40;99.90
39371;DHT22;25099;51.946;4.838;2023-05-07T02:51:06;15.40;99.90
39371;DHT22;25099;51.946;4.838;2023-05-07T02:53:32;15.40;99.90
39371;DHT22;25099;51.946;4.838;2023-05-07T02:55:59;15.40;99.90
39371;DHT22;25099;51.946;4.838;2023-05-07T02:58:25;15.50;99.90
39371;DHT22;25099;51.946;4.838;2023-05-07T03:00:52;15.50;99.90
39371;DHT22;25099;51.946;4.838;2023-05-07T03:03:17;15.50;99.90
39371;DHT22;25099;51.946;4.838;2023-05-07T03:05:43;15.40;99.90
39371;DHT22;25099;51.946;4.838;2023-05-07T03:08:09;15.40;99.90
39371;DHT22;25099;51.946;4.838;2023-05-07T03:10:36;15.50;99.90
39371;DHT22;25099;51.946;4.838;2023-05-07T03:13:02;16.20;99.90
39371;DHT22;25099;51.946;4.838;2023-05-07T03:15:27;15.80;99.90
39371;DHT22;25099;51.946;4.838;2023-05-07T03:17:53;15.50;99.90
39371;DHT22;25099;51.946;4.838;2023-05-07T03:20:18;15.50;99.90
39371;DHT22;25099;51.946;4.838;2023-05-07T03:22:44;15.50;99.90
39371;DHT22;25099;51.946;4.838;2023-05-07T03:25:10;15.50;99.90
39371;DHT22;25099;51.946;4.838;2023-05-07T03:27:35;15.50;99.90
39371;DHT22;25099;51.946;4.838;2023-05-07T03:30:01;15.50;99.90
39371;DHT22;25099;51.946;4.838;2023-05-07T03:32:26;15.50;99.90
39371;DHT22;25099;51.946;4.838;2023-05-07T03:34:52;15.50;99.90
39371;DHT22;25099;51.946;4.838;2023-05-07T03:37:18;15.50;99.90
39371;DHT22;25099;51.946;4.838;2023-05-07T03:39:43;15.50;99.90
39371;DHT22;25099;51.946;4.838;2023-05-07T03:42:09;15.60;99.90
39371;DHT22;25099;51.946;4.838;2023-05-07T03:44:35;15.70;99.90
39371;DHT22;25099;51.946;4.838;2023-05-07T03:47:02;15.80;99.90
39371;DHT22;25099;51.946;4.838;2023-05-07T03:49:27;15.70;99.90
39371;DHT22;25099;51.946;4.838;2023-05-07T03:51:53;15.70;99.90
39371;DHT22;25099;51.946;4.838;2023-05-07T03:54:19;15.70;99.90
39371;DHT22;25099;51.946;4.838;2023-05-07T03:56:44;15.60;99.90
39371;DHT22;25099;51.946;4.838;2023-05-07T03:59:10;15.70;99.90
39371;DHT22;25099;51.946;4.838;2023-05-07T04:01:36;15.60;99.90
39371;DHT22;25099;51.946;4.838;2023-05-07T04:04:01;15.60;99.90
39371;DHT22;25099;51.946;4.838;2023-05-07T04:06:28;15.60;99.90
39371;DHT22;25099;51.946;4.838;2023-05-07T04:08:53;15.60;99.90
39371;DHT22;25099;51.946;4.838;2023-05-07T04:11:19;15.60;99.90
39371;DHT22;25099;51.946;4.838;2023-05-07T04:13:45;15.60;99.90
39371;DHT22;25099;51.946;4.838;2023-05-07T04:16:11;15.60;99.90
39371;DHT22;25099;51.946;4.838;2023-05-07T04:18:36;15.60;99.90
39371;DHT22;25099;51.946;4.838;2023-05-07T04:21:02;15.50;99.90
39371;DHT22;25099;51.946;4.838;2023-05-07T04:23:27;15.50;99.90
39371;DHT22;25099;51.946;4.838;2023-05-07T04:25:53;15.50;99.90
39371;DHT22;25099;51.946;4.838;2023-05-07T04:28:19;15.60;99.90
39371;DHT22;25099;51.946;4.838;2023-05-07T04:30:45;15.60;99.90
39371;DHT22;25099;51.946;4.838;2023-05-07T04:33:11;15.50;99.90
39371;DHT22;25099;51.946;4.838;2023-05-07T04:35:37;15.60;99.90
39371;DHT22;25099;51.946;4.838;2023-05-07T04:38:02;15.70;99.90
39371;DHT22;25099;51.946;4.838;2023-05-07T04:40:28;15.60;99.90
39371;DHT22;25099;51.946;4.838;2023-05-07T04:42:54;15.50;99.90
39371;DHT22;25099;51.946;4.838;2023-05-07T04:45:20;15.60;99.90
39371;DHT22;25099;51.946;4.838;2023-05-07T04:47:45;15.50;99.90
39371;DHT22;25099;51.946;4.838;2023-05-07T04:50:11;15.40;99.90
39371;DHT22;25099;51.946;4.838;2023-05-07T04:52:37;15.40;99.90
39371;DHT22;25099;51.946;4.838;2023-05-07T04:55:02;15.40;99.90
39371;DHT22;25099;51.946;4.838;2023-05-07T04:57:28;15.40;99.90
39371;DHT22;25099;51.946;4.838;2023-05-07T04:59:54;15.40;99.90
39371;DHT22;25099;51.946;4.838;2023-05-07T05:02:20;15.40;99.90
39371;DHT22;25099;51.946;4.838;2023-05-07T05:04:45;15.40;99.90
39371;DHT22;25099;51.946;4.838;2023-05-07T05:07:11;15.40;99.90
39371;DHT22;25099;51.946;4.838;2023-05-07T05:09:36;15.30;99.90
39371;DHT22;25099;51.946;4.838;2023-05-07T05:12:02;15.40;99.90
39371;DHT22;25099;51.946;4.838;2023-05-07T05:14:28;15.30;99.90
39371;DHT22;25099;51.946;4.838;2023-05-07T05:16:53;15.40;99.90
39371;DHT22;25099;51.946;4.838;2023-05-07T05:19:19;15.40;99.90
39371;DHT22;25099;51.946;4.838;2023-05-07T05:21:44;15.30;99.90
39371;DHT22;25099;51.946;4.838;2023-05-07T05:24:10;15.30;99.90
39371;DHT22;25099;51.946;4.838;2023-05-07T05:26:35;15.40;99.90
39371;DHT22;25099;51.946;4.838;2023-05-07T05:29:01;15.30;99.90
39371;DHT22;25099;51.946;4.838;2023-05-07T05:31:26;15.30;99.90
39371;DHT22;25099;51.946;4.838;2023-05-07T05:33:52;15.40;99.90
39371;DHT22;25099;51.946;4.838;2023-05-07T05:36:17;15.40;99.90
39371;DHT22;25099;51.946;4.838;2023-05-07T05:38:43;15.30;99.90
39371;DHT22;25099;51.946;4.838;2023-05-07T05:41:09;15.30;99.90
39371;DHT22;25099;51.946;4.838;2023-05-07T05:43:35;15.30;99.90
39371;DHT22;25099;51.946;4.838;2023-05-07T05:46:01;15.80;99.90
39371;DHT22;25099;51.946;4.838;2023-05-07T05:48:26;15.30;99.90
39371;DHT22;25099;51.946;4.838;2023-05-07T05:50:52;15.30;99.90
39371;DHT22;25099;51.946;4.838;2023-05-07T05:53:18;15.30;99.90
39371;DHT22;25099;51.946;4.838;2023-05-07T05:55:43;15.30;99.90
39371;DHT22;25099;51.946;4.838;2023-05-07T05:58:09;15.30;99.90
39371;DHT22;25099;51.946;4.838;2023-05-07T06:00:35;15.90;99.90
39371;DHT22;25099;51.946;4.838;2023-05-07T06:03:01;15.40;99.90
39371;DHT22;25099;51.946;4.838;2023-05-07T06:05:26;15.40;99.90
39371;DHT22;25099;51.946;4.838;2023-05-07T06:07:52;15.40;99.90
39371;DHT22;25099;51.946;4.838;2023-05-07T06:10:17;15.30;99.90
39371;DHT22;25099;51.946;4.838;2023-05-07T06:12:43;15.30;99.90
39371;DHT22;25099;51.946;4.838;2023-05-07T06:15:09;15.30;99.90
39371;DHT22;25099;51.946;4.838;2023-05-07T06:17:34;15.40;99.90
39371;DHT22;25099;51.946;4.838;2023-05-07T06:20:00;15.50;99.90
39371;DHT22;25099;51.946;4.838;2023-05-07T06:22:25;15.50;99.90
39371;DHT22;25099;51.946;4.838;2023-05-07T06:24:51;15.50;99.90
39371;DHT22;25099;51.946;4.838;2023-05-07T06:27:17;15.50;99.90
39371;DHT22;25099;51.946;4.838;2023-05-07T06:29:42;15.50;99.90
39371;DHT22;25099;51.946;4.838;2023-05-07T06:32:09;15.50;99.90
39371;DHT22;25099;51.946;4.838;2023-05-07T06:34:34;15.50;99.90
39371;DHT22;25099;51.946;4.838;2023-05-07T06:37:00;15.60;99.90
39371;DHT22;25099;51.946;4.838;2023-05-07T06:39:26;15.70;99.90
39371;DHT22;25099;51.946;4.838;2023-05-07T06:41:52;15.70;99.90
39371;DHT22;25099;51.946;4.838;2023-05-07T06:44:17;15.70;99.90
39371;DHT22;25099;51.946;4.838;2023-05-07T06:46:43;15.80;99.90
39371;DHT22;25099;51.946;4.838;2023-05-07T06:49:08;15.80;99.90
39371;DHT22;25099;51.946;4.838;2023-05-07T06:51:34;15.70;99.90
39371;DHT22;25099;51.946;4.838;2023-05-07T06:53:59;15.80;99.90
39371;DHT22;25099;51.946;4.838;2023-05-07T06:56:25;15.70;99.90
39371;DHT22;25099;51.946;4.838;2023-05-07T06:58:51;15.70;99.90
39371;DHT22;25099;51.946;4.838;2023-05-07T07:01:16;15.70;99.90
39371;DHT22;25099;51.946;4.838;2023-05-07T07:03:42;15.60;99.90
39371;DHT22;25099;51.946;4.838;2023-05-07T07:06:07;15.60;99.90
39371;DHT22;25099;51.946;4.838;2023-05-07T07:08:33;15.60;99.90
39371;DHT22;25099;51.946;4.838;2023-05-07T07:10:59;15.70;99.90
39371;DHT22;25099;51.946;4.838;2023-05-07T07:13:25;15.70;99.90
39371;DHT22;25099;51.946;4.838;2023-05-07T07:15:51;15.70;99.90
39371;DHT22;25099;51.946;4.838;2023-05-07T07:18:17;15.70;99.90
39371;DHT22;25099;51.946;4.838;2023-05-07T07:20:42;15.60;99.90
39371;DHT22;25099;51.946;4.838;2023-05-07T07:23:09;15.60;99.90
39371;DHT22;25099;51.946;4.838;2023-05-07T07:25:35;15.60;99.90
39371;DHT22;25099;51.946;4.838;2023-05-07T07:28:01;15.70;99.90
39371;DHT22;25099;51.946;4.838;2023-05-07T07:30:26;15.70;99.90
39371;DHT22;25099;51.946;4.838;2023-05-07T07:32:52;15.70;99.90
39371;DHT22;25099;51.946;4.838;2023-05-07T07:35:18;15.70;99.90
39371;DHT22;25099;51.946;4.838;2023-05-07T07:37:43;15.70;99.90
39371;DHT22;25099;51.946;4.838;2023-05-07T07:40:09;15.70;99.90
39371;DHT22;25099;51.946;4.838;2023-05-07T07:42:35;15.80;99.90
39371;DHT22;25099;51.946;4.838;2023-05-07T07:45:01;15.80;99.90
39371;DHT22;25099;51.946;4.838;2023-05-07T07:47:26;15.80;99.90
39371;DHT22;25099;51.946;4.838;2023-05-07T07:49:52;15.90;99.90
39371;DHT22;25099;51.946;4.838;2023-05-07T07:52:18;16.00;99.90
39371;DHT22;25099;51.946;4.838;2023-05-07T07:54:44;15.90;99.90
39371;DHT22;25099;51.946;4.838;2023-05-07T07:57:10;15.90;99.90
39371;DHT22;25099;51.946;4.838;2023-05-07T07:59:35;15.90;99.90
39371;DHT22;25099;51.946;4.838;2023-05-07T08:02:01;15.90;99.90
39371;DHT22;25099;51.946;4.838;2023-05-07T08:04:26;15.90;99.90
39371;DHT22;25099;51.946;4.838;2023-05-07T08:06:52;16.00;99.90
39371;DHT22;25099;51.946;4.838;2023-05-07T08:09:19;16.00;99.90
39371;DHT22;25099;51.946;4.838;2023-05-07T08:11:45;16.00;99.90
39371;DHT22;25099;51.946;4.838;2023-05-07T08:14:11;16.10;99.90
39371;DHT22;25099;51.946;4.838;2023-05-07T08:16:36;16.10;99.90
39371;DHT22;25099;51.946;4.838;2023-05-07T08:19:02;16.20;99.90
39371;DHT22;25099;51.946;4.838;2023-05-07T08:21:28;16.20;99.90
39371;DHT22;25099;51.946;4.838;2023-05-07T08:23:54;16.30;99.90
39371;DHT22;25099;51.946;4.838;2023-05-07T08:26:19;16.30;99.90
39371;DHT22;25099;51.946;4.838;2023-05-07T08:28:45;16.30;99.90
39371;DHT22;25099;51.946;4.838;2023-05-07T08:31:11;16.30;99.90
39371;DHT22;25099;51.946;4.838;2023-05-07T08:33:36;16.40;99.90
39371;DHT22;25099;51.946;4.838;2023-05-07T08:36:04;16.40;99.90
39371;DHT22;25099;51.946;4.838;2023-05-07T08:38:29;16.40;99.90
39371;DHT22;25099;51.946;4.838;2023-05-07T08:40:55;16.40;99.90
39371;DHT22;25099;51.946;4.838;2023-05-07T08:43:21;16.40;99.90
39371;DHT22;25099;51.946;4.838;2023-05-07T08:45:49;16.40;99.90
39371;DHT22;25099;51.946;4.838;2023-05-07T08:48:17;16.40;99.90
39371;DHT22;25099;51.946;4.838;2023-05-07T08:50:43;16.40;99.90
39371;DHT22;25099;51.946;4.838;2023-05-07T08:53:08;16.40;99.90
39371;DHT22;25099;51.946;4.838;2023-05-07T08:55:34;16.50;99.90
39371;DHT22;25099;51.946;4.838;2023-05-07T08:58:00;16.60;99.90
39371;DHT22;25099;51.946;4.838;2023-05-07T09:00:26;16.60;99.90
39371;DHT22;25099;51.946;4.838;2023-05-07T09:02:53;16.60;99.90
39371;DHT22;25099;51.946;4.838;2023-05-07T09:05:19;16.60;99.90
39371;DHT22;25099;51.946;4.838;2023-05-07T09:07:45;16.70;99.90
39371;DHT22;25099;51.946;4.838;2023-05-07T09:10:11;16.70;99.90
39371;DHT22;25099;51.946;4.838;2023-05-07T09:12:37;16.80;99.90
39371;DHT22;25099;51.946;4.838;2023-05-07T09:15:05;16.90;99.90
39371;DHT22;25099;51.946;4.838;2023-05-07T09:17:31;16.80;99.90
39371;DHT22;25099;51.946;4.838;2023-05-07T09:19:56;16.90;99.90
39371;DHT22;25099;51.946;4.838;2023-05-07T09:22:26;16.90;99.90
39371;DHT22;25099;51.946;4.838;2023-05-07T09:24:52;17.00;99.90
39371;DHT22;25099;51.946;4.838;2023-05-07T09:27:18;17.30;99.90
39371;DHT22;25099;51.946;4.838;2023-05-07T09:29:44;17.10;99.90
39371;DHT22;25099;51.946;4.838;2023-05-07T09:32:10;17.10;99.90
39371;DHT22;25099;51.946;4.838;2023-05-07T09:34:36;17.20;99.90
39371;DHT22;25099;51.946;4.838;2023-05-07T09:37:02;17.30;99.90
39371;DHT22;25099;51.946;4.838;2023-05-07T09:39:45;17.30;99.90
39371;DHT22;25099;51.946;4.838;2023-05-07T09:42:12;17.40;99.90
39371;DHT22;25099;51.946;4.838;2023-05-07T09:44:38;17.40;99.90
39371;DHT22;25099;51.946;4.838;2023-05-07T09:47:07;17.30;99.90
39371;DHT22;25099;51.946;4.838;2023-05-07T09:49:38;17.40;99.90
39371;DHT22;25099;51.946;4.838;2023-05-07T09:52:05;17.40;99.90
39371;DHT22;25099;51.946;4.838;2023-05-07T09:54:34;17.40;99.90
39371;DHT22;25099;51.946;4.838;2023-05-07T09:57:02;17.40;99.90
39371;DHT22;25099;51.946;4.838;2023-05-07T09:59:31;17.40;99.90
39371;DHT22;25099;51.946;4.838;2023-05-07T10:01:58;17.40;99.90
39371;DHT22;25099;51.946;4.838;2023-05-07T10:04:25;17.50;99.90
39371;DHT22;25099;51.946;4.838;2023-05-07T10:06:52;17.40;99.90
39371;DHT22;25099;51.946;4.838;2023-05-07T10:09:19;17.40;99.90
39371;DHT22;25099;51.946;4.838;2023-05-07T10:11:45;17.40;99.90
39371;DHT22;25099;51.946;4.838;2023-05-07T10:14:12;17.40;99.90
39371;DHT22;25099;51.946;4.838;2023-05-07T10:16:38;17.50;99.90
39371;DHT22;25099;51.946;4.838;2023-05-07T10:19:04;17.40;99.90
39371;DHT22;25099;51.946;4.838;2023-05-07T10:21:30;17.50;99.90
39371;DHT22;25099;51.946;4.838;2023-05-07T10:23:58;17.60;99.90
39371;DHT22;25099;51.946;4.838;2023-05-07T10:26:25;17.60;99.90
39371;DHT22;25099;51.946;4.838;2023-05-07T10:28:58;17.60;99.90
39371;DHT22;25099;51.946;4.838;2023-05-07T10:34:18;17.80;99.90
39371;DHT22;25099;51.946;4.838;2023-05-07T10:36:48;17.90;99.90
39371;DHT22;25099;51.946;4.838;2023-05-07T10:39:14;17.80;99.90
39371;DHT22;25099;51.946;4.838;2023-05-07T10:41:40;17.90;99.90
39371;DHT22;25099;51.946;4.838;2023-05-07T10:44:05;18.40;99.90
39371;DHT22;25099;51.946;4.838;2023-05-07T10:46:31;18.10;99.90
39371;DHT22;25099;51.946;4.838;2023-05-07T10:51:26;18.10;99.90
39371;DHT22;25099;51.946;4.838;2023-05-07T10:56:40;18.30;99.90
39371;DHT22;25099;51.946;4.838;2023-05-07T11:02:05;18.10;99.90
39371;DHT22;25099;51.946;4.838;2023-05-07T11:04:35;18.30;99.90
39371;DHT22;25099;51.946;4.838;2023-05-07T11:15:04;18.40;99.90
39371;DHT22;25099;51.946;4.838;2023-05-07T11:17:30;18.40;99.90
39371;DHT22;25099;51.946;4.838;2023-05-07T11:20:01;19.00;99.90
39371;DHT22;25099;51.946;4.838;2023-05-07T11:25:00;18.50;99.90
39371;DHT22;25099;51.946;4.838;2023-05-07T11:27:27;18.50;99.90
39371;DHT22;25099;51.946;4.838;2023-05-07T11:29:52;18.40;99.90
39371;DHT22;25099;51.946;4.838;2023-05-07T11:32:31;18.40;99.90
39371;DHT22;25099;51.946;4.838;2023-05-07T11:34:58;18.40;99.90
39371;DHT22;25099;51.946;4.838;2023-05-07T11:37:25;18.40;99.90
39371;DHT22;25099;51.946;4.838;2023-05-07T11:40:05;18.40;99.90
39371;DHT22;25099;51.946;4.838;2023-05-07T11:42:41;18.40;99.90
39371;DHT22;25099;51.946;4.838;2023-05-07T11:45:09;18.40;99.90
39371;DHT22;25099;51.946;4.838;2023-05-07T11:47:35;18.30;99.90
39371;DHT22;25099;51.946;4.838;2023-05-07T11:50:08;18.40;99.90
39371;DHT22;25099;51.946;4.838;2023-05-07T11:52:34;18.30;99.90
39371;DHT22;25099;51.946;4.838;2023-05-07T11:55:01;18.30;99.90
39371;DHT22;25099;51.946;4.838;2023-05-07T11:57:28;18.40;99.90
39371;DHT22;25099;51.946;4.838;2023-05-07T11:59:55;18.50;99.90
39371;DHT22;25099;51.946;4.838;2023-05-07T12:02:21;18.50;99.90
39371;DHT22;25099;51.946;4.838;2023-05-07T12:04:47;18.60;99.90
39371;DHT22;25099;51.946;4.838;2023-05-07T12:07:13;18.70;99.90
39371;DHT22;25099;51.946;4.838;2023-05-07T12:09:42;18.70;99.90
39371;DHT22;25099;51.946;4.838;2023-05-07T12:12:08;18.80;99.90
39371;DHT22;25099;51.946;4.838;2023-05-07T12:14:40;18.70;99.90
39371;DHT22;25099;51.946;4.838;2023-05-07T12:17:10;18.80;99.90
39371;DHT22;25099;51.946;4.838;2023-05-07T12:19:38;18.80;99.90
39371;DHT22;25099;51.946;4.838;2023-05-07T12:22:04;18.80;99.90
39371;DHT22;25099;51.946;4.838;2023-05-07T12:25:08;18.60;99.90
39371;DHT22;25099;51.946;4.838;2023-05-07T12:27:37;18.80;99.90
39371;DHT22;25099;51.946;4.838;2023-05-07T12:30:03;18.80;99.90
39371;DHT22;25099;51.946;4.838;2023-05-07T12:32:29;18.80;99.90
39371;DHT22;25099;51.946;4.838;2023-05-07T12:34:54;18.80;99.90
39371;DHT22;25099;51.946;4.838;2023-05-07T12:37:26;18.80;99.90
39371;DHT22;25099;51.946;4.838;2023-05-07T12:40:09;18.80;99.90
39371;DHT22;25099;51.946;4.838;2023-05-07T12:42:36;18.90;99.90
39371;DHT22;25099;51.946;4.838;2023-05-07T12:45:12;18.90;99.90
39371;DHT22;25099;51.946;4.838;2023-05-07T12:47:38;18.80;99.90
39371;DHT22;25099;51.946;4.838;2023-05-07T12:50:07;19.00;99.90
39371;DHT22;25099;51.946;4.838;2023-05-07T12:52:33;19.10;99.90
39371;DHT22;25099;51.946;4.838;2023-05-07T12:55:05;19.20;99.90
39371;DHT22;25099;51.946;4.838;2023-05-07T12:57:40;19.30;99.90
39371;DHT22;25099;51.946;4.838;2023-05-07T13:00:07;19.30;99.90
39371;DHT22;25099;51.946;4.838;2023-05-07T13:02:41;19.30;99.90
39371;DHT22;25099;51.946;4.838;2023-05-07T13:05:07;19.40;99.90
39371;DHT22;25099;51.946;4.838;2023-05-07T13:07:33;19.30;99.90
39371;DHT22;25099;51.946;4.838;2023-05-07T13:09:59;19.30;99.90
39371;DHT22;25099;51.946;4.838;2023-05-07T13:12:25;19.20;99.90
39371;DHT22;25099;51.946;4.838;2023-05-07T13:14:50;19.10;99.90
39371;DHT22;25099;51.946;4.838;2023-05-07T13:17:16;19.10;99.90
39371;DHT22;25099;51.946;4.838;2023-05-07T13:19:41;19.00;99.90
39371;DHT22;25099;51.946;4.838;2023-05-07T13:22:07;19.30;99.90
39371;DHT22;25099;51.946;4.838;2023-05-07T13:24:32;19.20;99.90
39371;DHT22;25099;51.946;4.838;2023-05-07T13:26:58;18.90;99.90
39371;DHT22;25099;51.946;4.838;2023-05-07T13:29:23;18.90;99.90
39371;DHT22;25099;51.946;4.838;2023-05-07T13:31:56;18.80;99.90
39371;DHT22;25099;51.946;4.838;2023-05-07T13:34:22;18.70;99.90
39371;DHT22;25099;51.946;4.838;2023-05-07T13:36:48;18.70;99.90
39371;DHT22;25099;51.946;4.838;2023-05-07T13:39:13;18.60;99.90
39371;DHT22;25099;51.946;4.838;2023-05-07T13:41:39;18.50;99.90
39371;DHT22;25099;51.946;4.838;2023-05-07T13:44:05;18.50;99.90
39371;DHT22;25099;51.946;4.838;2023-05-07T13:46:30;18.80;99.90
39371;DHT22;25099;51.946;4.838;2023-05-07T13:48:56;18.70;99.90
39371;DHT22;25099;51.946;4.838;2023-05-07T13:51:22;18.60;99.90
39371;DHT22;25099;51.946;4.838;2023-05-07T13:53:47;18.20;99.90
39371;DHT22;25099;51.946;4.838;2023-05-07T13:56:13;18.30;99.90
39371;DHT22;25099;51.946;4.838;2023-05-07T13:58:39;18.20;99.90
39371;DHT22;25099;51.946;4.838;2023-05-07T14:01:05;18.20;99.90
39371;DHT22;25099;51.946;4.838;2023-05-07T14:03:31;18.10;99.90
39371;DHT22;25099;51.946;4.838;2023-05-07T14:06:00;18.10;99.90
39371;DHT22;25099;51.946;4.838;2023-05-07T14:08:27;18.10;99.90
39371;DHT22;25099;51.946;4.838;2023-05-07T14:10:53;18.10;99.90
39371;DHT22;25099;51.946;4.838;2023-05-07T14:13:18;18.10;99.90
39371;DHT22;25099;51.946;4.838;2023-05-07T14:15:44;18.00;99.90
39371;DHT22;25099;51.946;4.838;2023-05-07T14:18:14;18.20;99.90
39371;DHT22;25099;51.946;4.838;2023-05-07T14:20:40;17.90;99.90
39371;DHT22;25099;51.946;4.838;2023-05-07T14:23:06;17.90;99.90
39371;DHT22;25099;51.946;4.838;2023-05-07T14:25:31;17.80;99.90
39371;DHT22;25099;51.946;4.838;2023-05-07T14:27:57;17.80;99.90
39371;DHT22;25099;51.946;4.838;2023-05-07T14:30:22;17.80;99.90
39371;DHT22;25099;51.946;4.838;2023-05-07T14:32:49;17.80;99.90
39371;DHT22;25099;51.946;4.838;2023-05-07T14:35:15;17.70;99.90
39371;DHT22;25099;51.946;4.838;2023-05-07T14:37:41;17.70;99.90
39371;DHT22;25099;51.946;4.838;2023-05-07T14:40:07;17.70;99.90
39371;DHT22;25099;51.946;4.838;2023-05-07T14:42:33;17.70;99.90
39371;DHT22;25099;51.946;4.838;2023-05-07T14:44:58;17.70;99.90
39371;DHT22;25099;51.946;4.838;2023-05-07T14:47:24;17.80;99.90
39371;DHT22;25099;51.946;4.838;2023-05-07T14:49:49;17.70;99.90
39371;DHT22;25099;51.946;4.838;2023-05-07T14:52:15;17.80;99.90
39371;DHT22;25099;51.946;4.838;2023-05-07T14:54:40;17.80;99.90
39371;DHT22;25099;51.946;4.838;2023-05-07T14:57:08;17.80;99.90
39371;DHT22;25099;51.946;4.838;2023-05-07T14:59:34;17.70;99.90
39371;DHT22;25099;51.946;4.838;2023-05-07T15:02:00;17.80;99.90
39371;DHT22;25099;51.946;4.838;2023-05-07T15:04:26;17.80;99.90
39371;DHT22;25099;51.946;4.838;2023-05-07T15:06:52;17.80;99.90
39371;DHT22;25099;51.946;4.838;2023-05-07T15:09:19;17.80;99.90
39371;DHT22;25099;51.946;4.838;2023-05-07T15:11:44;17.70;99.90
39371;DHT22;25099;51.946;4.838;2023-05-07T15:14:10;17.80;99.90
39371;DHT22;25099;51.946;4.838;2023-05-07T15:16:35;17.70;99.90
39371;DHT22;25099;51.946;4.838;2023-05-07T15:19:01;17.70;99.90
39371;DHT22;25099;51.946;4.838;2023-05-07T15:21:27;17.80;99.90
39371;DHT22;25099;51.946;4.838;2023-05-07T15:23:52;17.70;99.90
39371;DHT22;25099;51.946;4.838;2023-05-07T15:26:18;17.80;99.90
39371;DHT22;25099;51.946;4.838;2023-05-07T15:28:43;17.80;99.90
39371;DHT22;25099;51.946;4.838;2023-05-07T15:31:09;17.80;99.90
39371;DHT22;25099;51.946;4.838;2023-05-07T15:33:34;17.70;99.90
39371;DHT22;25099;51.946;4.838;2023-05-07T15:36:00;17.70;99.90
39371;DHT22;25099;51.946;4.838;2023-05-07T15:38:26;17.70;99.90
39371;DHT22;25099;51.946;4.838;2023-05-07T15:40:52;17.60;99.90
39371;DHT22;25099;51.946;4.838;2023-05-07T15:43:18;17.60;99.90
39371;DHT22;25099;51.946;4.838;2023-05-07T15:45:43;17.60;99.90